sensor_id;sensor_type;location;lat;lon;timestamp;pressure;altitude;pressure_sealevel;temperature;humidity
67740;BME280;54536;50.090;14.420;2023-02-21T00:02:00;99438.66;;;11.72;50.89
67740;BME280;54536;50.090;14.420;2023-02-21T00:04:45;99435.44;;;11.79;50.72
67740;BME280;54536;50.090;14.420;2023-02-21T00:07:29;99437.91;;;11.80;49.96
67740;BME280;54536;50.090;14.420;2023-02-21T00:10:16;99436.28;;;11.79;50.64
67740;BME280;54536;50.090;14.420;2023-02-21T00:13:01;99434.63;;;11.78;50.30
67740;BME280;54536;50.090;14.420;2023-02-21T00:15:46;99429.47;;;11.77;50.67
67740;BME280;54536;50.090;14.420;2023-02-21T00:18:35;99436.00;;;11.82;50.22
67740;BME280;54536;50.090;14.420;2023-02-21T00:21:22;99436.03;;;11.63;50.66
67740;BME280;54536;50.090;14.420;2023-02-21T00:24:08;99432.13;;;11.67;50.76
67740;BME280;54536;50.090;14.420;2023-02-21T00:26:56;99440.31;;;11.64;50.67
67740;BME280;54536;50.090;14.420;2023-02-21T00:29:41;99438.00;;;11.61;51.01
67740;BME280;54536;50.090;14.420;2023-02-21T00:32:25;99440.75;;;11.59;51.26
67740;BME280;54536;50.090;14.420;2023-02-21T00:35:10;99431.47;;;11.65;50.92
67740;BME280;54536;50.090;14.420;2023-02-21T00:38:00;99434.50;;;11.60;51.33
67740;BME280;54536;50.090;14.420;2023-02-21T00:40:46;99442.66;;;11.67;50.80
67740;BME280;54536;50.090;14.420;2023-02-21T00:43:33;99433.56;;;11.61;51.09
67740;BME280;54536;50.090;14.420;2023-02-21T00:46:21;99443.34;;;11.79;51.04
67740;BME280;54536;50.090;14.420;2023-02-21T00:49:06;99452.09;;;11.69;51.61
67740;BME280;54536;50.090;14.420;2023-02-21T00:51:51;99452.66;;;11.63;51.19
67740;BME280;54536;50.090;14.420;2023-02-21T00:54:36;99466.00;;;11.52;51.46
67740;BME280;54536;50.090;14.420;2023-02-21T00:57:21;99457.00;;;11.55;52.04
67740;BME280;54536;50.090;14.420;2023-02-21T01:00:17;99453.22;;;11.67;51.43
67740;BME280;54536;50.090;14.420;2023-02-21T01:03:02;99453.09;;;11.59;51.40
67740;BME280;54536;50.090;14.420;2023-02-21T01:05:46;99443.94;;;11.63;51.85
67740;BME280;54536;50.090;14.420;2023-02-21T01:08:31;99449.66;;;11.58;51.62
67740;BME280;54536;50.090;14.420;2023-02-21T01:11:20;99450.19;;;11.62;51.58
67740;BME280;54536;50.090;14.420;2023-02-21T01:14:06;99453.94;;;11.59;51.67
67740;BME280;54536;50.090;14.420;2023-02-21T01:16:51;99461.28;;;11.56;51.66
67740;BME280;54536;50.090;14.420;2023-02-21T01:19:36;99453.66;;;11.53;52.27
67740;BME280;54536;50.090;14.420;2023-02-21T01:22:20;99446.19;;;11.58;52.08
67740;BME280;54536;50.090;14.420;2023-02-21T01:25:06;99442.88;;;11.46;52.33
67740;BME280;54536;50.090;14.420;2023-02-21T01:27:53;99438.66;;;11.63;51.86
67740;BME280;54536;50.090;14.420;2023-02-21T01:30:51;99433.41;;;11.53;52.19
67740;BME280;54536;50.090;14.420;2023-02-21T01:33:40;99440.78;;;11.49;52.46
67740;BME280;54536;50.090;14.420;2023-02-21T01:36:26;99439.41;;;11.36;53.12
67740;BME280;54536;50.090;14.420;2023-02-21T01:39:22;99435.53;;;11.40;52.55
67740;BME280;54536;50.090;14.420;2023-02-21T01:42:09;99432.78;;;11.32;52.98
67740;BME280;54536;50.090;14.420;2023-02-21T01:48:08;99421.38;;;11.41;53.19
67740;BME280;54536;50.090;14.420;2023-02-21T01:50:56;99429.28;;;11.41;52.85
67740;BME280;54536;50.090;14.420;2023-02-21T01:53:43;99427.22;;;11.35;53.41
67740;BME280;54536;50.090;14.420;2023-02-21T01:56:30;99428.88;;;11.26;53.00
67740;BME280;54536;50.090;14.420;2023-02-21T01:59:17;99418.47;;;11.44;52.70
67740;BME280;54536;50.090;14.420;2023-02-21T02:02:25;99425.41;;;11.45;53.23
67740;BME280;54536;50.090;14.420;2023-02-21T02:05:12;99424.16;;;11.30;53.01
67740;BME280;54536;50.090;14.420;2023-02-21T02:08:03;99412.09;;;11.37;53.38
67740;BME280;54536;50.090;14.420;2023-02-21T02:10:58;99415.72;;;11.26;53.15
67740;BME280;54536;50.090;14.420;2023-02-21T02:13:53;99416.53;;;11.36;53.53
67740;BME280;54536;50.090;14.420;2023-02-21T02:16:38;99414.34;;;11.41;52.65
67740;BME280;54536;50.090;14.420;2023-02-21T02:19:34;99404.91;;;11.39;52.90
67740;BME280;54536;50.090;14.420;2023-02-21T02:22:20;99408.91;;;11.43;52.80
67740;BME280;54536;50.090;14.420;2023-02-21T02:25:02;99412.53;;;11.42;52.59
67740;BME280;54536;50.090;14.420;2023-02-21T02:27:54;99410.72;;;11.33;53.12
67740;BME280;54536;50.090;14.420;2023-02-21T02:46:11;99394.63;;;11.55;52.41
67740;BME280;54536;50.090;14.420;2023-02-21T02:48:40;99397.13;;;11.47;53.35
67740;BME280;54536;50.090;14.420;2023-02-21T02:51:11;99389.50;;;11.44;53.14
67740;BME280;54536;50.090;14.420;2023-02-21T02:53:39;99386.47;;;11.48;53.47
67740;BME280;54536;50.090;14.420;2023-02-21T02:56:09;99386.59;;;11.37;53.12
67740;BME280;54536;50.090;14.420;2023-02-21T02:58:41;99383.69;;;11.40;53.23
67740;BME280;54536;50.090;14.420;2023-02-21T03:10:20;99377.91;;;11.27;53.74
67740;BME280;54536;50.090;14.420;2023-02-21T03:18:26;99384.53;;;11.31;54.21
67740;BME280;54536;50.090;14.420;2023-02-21T03:21:00;99375.13;;;11.29;54.04
67740;BME280;54536;50.090;14.420;2023-02-21T03:23:33;99371.34;;;11.41;53.00
67740;BME280;54536;50.090;14.420;2023-02-21T03:26:04;99381.06;;;11.40;53.82
67740;BME280;54536;50.090;14.420;2023-02-21T03:28:38;99387.88;;;11.23;54.38
67740;BME280;54536;50.090;14.420;2023-02-21T03:31:25;99382.16;;;11.38;53.66
67740;BME280;54536;50.090;14.420;2023-02-21T03:33:54;99376.34;;;11.34;54.18
67740;BME280;54536;50.090;14.420;2023-02-21T03:36:22;99379.53;;;11.38;53.77
67740;BME280;54536;50.090;14.420;2023-02-21T03:38:49;99383.28;;;11.45;53.27
67740;BME280;54536;50.090;14.420;2023-02-21T03:41:15;99383.97;;;11.37;53.77
67740;BME280;54536;50.090;14.420;2023-02-21T03:43:41;99396.44;;;11.55;53.61
67740;BME280;54536;50.090;14.420;2023-02-21T03:46:07;99393.25;;;11.51;53.22
67740;BME280;54536;50.090;14.420;2023-02-21T03:48:33;99380.34;;;11.58;53.68
67740;BME280;54536;50.090;14.420;2023-02-21T03:51:05;99382.69;;;11.61;53.24
67740;BME280;54536;50.090;14.420;2023-02-21T03:53:44;99380.31;;;11.67;53.60
67740;BME280;54536;50.090;14.420;2023-02-21T03:56:10;99378.81;;;11.55;53.83
67740;BME280;54536;50.090;14.420;2023-02-21T03:58:36;99374.22;;;11.57;54.22
67740;BME280;54536;50.090;14.420;2023-02-21T04:01:02;99380.75;;;11.53;53.37
67740;BME280;54536;50.090;14.420;2023-02-21T04:03:30;99368.56;;;11.52;53.51
67740;BME280;54536;50.090;14.420;2023-02-21T04:05:56;99362.63;;;11.40;54.20
67740;BME280;54536;50.090;14.420;2023-02-21T04:08:22;99362.72;;;11.58;53.96
67740;BME280;54536;50.090;14.420;2023-02-21T04:10:48;99362.31;;;11.53;53.72
67740;BME280;54536;50.090;14.420;2023-02-21T04:13:21;99357.63;;;11.37;54.72
67740;BME280;54536;50.090;14.420;2023-02-21T04:15:49;99352.06;;;11.50;54.20
67740;BME280;54536;50.090;14.420;2023-02-21T04:18:15;99347.63;;;11.51;53.90
67740;BME280;54536;50.090;14.420;2023-02-21T04:20:41;99355.97;;;11.46;54.06
67740;BME280;54536;50.090;14.420;2023-02-21T04:23:08;99356.66;;;11.48;54.50
67740;BME280;54536;50.090;14.420;2023-02-21T04:25:34;99355.25;;;11.54;54.29
67740;BME280;54536;50.090;14.420;2023-02-21T04:28:15;99348.78;;;11.48;54.25
67740;BME280;54536;50.090;14.420;2023-02-21T04:30:41;99344.88;;;11.52;53.92
67740;BME280;54536;50.090;14.420;2023-02-21T04:33:07;99350.81;;;11.54;54.04
67740;BME280;54536;50.090;14.420;2023-02-21T04:35:33;99356.19;;;11.62;53.87
67740;BME280;54536;50.090;14.420;2023-02-21T04:37:59;99355.50;;;11.60;53.95
67740;BME280;54536;50.090;14.420;2023-02-21T04:40:25;99345.13;;;11.59;54.08
67740;BME280;54536;50.090;14.420;2023-02-21T04:42:51;99334.25;;;11.71;53.37
67740;BME280;54536;50.090;14.420;2023-02-21T04:45:18;99343.72;;;11.64;54.18
67740;BME280;54536;50.090;14.420;2023-02-21T04:47:45;99340.91;;;11.76;53.50
67740;BME280;54536;50.090;14.420;2023-02-21T04:50:11;99340.44;;;11.80;53.18
67740;BME280;54536;50.090;14.420;2023-02-21T04:52:39;99340.31;;;11.82;53.97
67740;BME280;54536;50.090;14.420;2023-02-21T04:55:07;99346.69;;;11.89;53.16
67740;BME280;54536;50.090;14.420;2023-02-21T04:57:33;99343.09;;;11.80;53.49
67740;BME280;54536;50.090;14.420;2023-02-21T05:00:00;99332.47;;;11.72;53.52
67740;BME280;54536;50.090;14.420;2023-02-21T05:02:27;99338.50;;;11.82;53.73
67740;BME280;54536;50.090;14.420;2023-02-21T05:04:54;99330.75;;;11.90;53.38
67740;BME280;54536;50.090;14.420;2023-02-21T05:07:21;99332.00;;;11.77;53.90
67740;BME280;54536;50.090;14.420;2023-02-21T05:09:46;99333.16;;;11.74;53.34
67740;BME280;54536;50.090;14.420;2023-02-21T05:12:13;99337.81;;;11.80;53.33
67740;BME280;54536;50.090;14.420;2023-02-21T05:14:40;99331.72;;;11.89;53.59
67740;BME280;54536;50.090;14.420;2023-02-21T05:17:12;99329.38;;;11.86;53.25
67740;BME280;54536;50.090;14.420;2023-02-21T05:19:38;99331.59;;;11.81;54.04
67740;BME280;54536;50.090;14.420;2023-02-21T05:22:05;99327.00;;;11.83;53.65
67740;BME280;54536;50.090;14.420;2023-02-21T05:24:32;99328.25;;;11.89;53.08
67740;BME280;54536;50.090;14.420;2023-02-21T05:26:59;99327.41;;;11.88;53.54
67740;BME280;54536;50.090;14.420;2023-02-21T05:29:25;99332.69;;;11.88;53.18
67740;BME280;54536;50.090;14.420;2023-02-21T05:31:52;99322.69;;;11.82;53.11
67740;BME280;54536;50.090;14.420;2023-02-21T05:34:18;99319.09;;;11.83;53.57
67740;BME280;54536;50.090;14.420;2023-02-21T05:36:45;99323.69;;;11.81;53.78
67740;BME280;54536;50.090;14.420;2023-02-21T05:39:11;99316.50;;;11.73;53.92
67740;BME280;54536;50.090;14.420;2023-02-21T05:41:46;99312.91;;;11.75;53.75
67740;BME280;54536;50.090;14.420;2023-02-21T05:44:13;99316.19;;;11.77;53.42
67740;BME280;54536;50.090;14.420;2023-02-21T05:46:39;99314.47;;;11.67;53.53
67740;BME280;54536;50.090;14.420;2023-02-21T05:49:06;99314.22;;;11.61;54.10
67740;BME280;54536;50.090;14.420;2023-02-21T05:51:37;99318.59;;;11.70;53.89
67740;BME280;54536;50.090;14.420;2023-02-21T05:54:06;99312.00;;;11.56;54.26
67740;BME280;54536;50.090;14.420;2023-02-21T05:56:40;99329.84;;;11.62;53.94
67740;BME280;54536;50.090;14.420;2023-02-21T05:59:08;99328.88;;;11.63;53.99
67740;BME280;54536;50.090;14.420;2023-02-21T06:01:34;99327.81;;;11.56;54.52
67740;BME280;54536;50.090;14.420;2023-02-21T06:04:00;99338.06;;;11.49;54.24
67740;BME280;54536;50.090;14.420;2023-02-21T06:06:27;99339.59;;;11.52;54.50
67740;BME280;54536;50.090;14.420;2023-02-21T06:08:53;99347.50;;;11.52;54.19
67740;BME280;54536;50.090;14.420;2023-02-21T06:11:26;99346.69;;;11.52;54.35
67740;BME280;54536;50.090;14.420;2023-02-21T06:13:56;99343.50;;;11.48;55.17
67740;BME280;54536;50.090;14.420;2023-02-21T06:16:24;99350.53;;;11.47;54.61
67740;BME280;54536;50.090;14.420;2023-02-21T06:18:52;99342.50;;;11.59;54.55
67740;BME280;54536;50.090;14.420;2023-02-21T06:21:20;99341.00;;;11.46;55.00
67740;BME280;54536;50.090;14.420;2023-02-21T06:23:47;99348.88;;;11.56;54.54
67740;BME280;54536;50.090;14.420;2023-02-21T06:26:14;99343.88;;;11.53;54.33
67740;BME280;54536;50.090;14.420;2023-02-21T06:28:41;99347.63;;;11.51;54.94
67740;BME280;54536;50.090;14.420;2023-02-21T06:31:08;99360.66;;;11.52;54.15
67740;BME280;54536;50.090;14.420;2023-02-21T06:33:35;99362.06;;;11.46;54.58
67740;BME280;54536;50.090;14.420;2023-02-21T06:36:12;99367.19;;;11.58;54.36
67740;BME280;54536;50.090;14.420;2023-02-21T06:38:38;99364.94;;;11.53;54.40
67740;BME280;54536;50.090;14.420;2023-02-21T06:41:07;99370.94;;;11.45;54.32
67740;BME280;54536;50.090;14.420;2023-02-21T06:43:35;99373.97;;;11.41;54.80
67740;BME280;54536;50.090;14.420;2023-02-21T06:46:02;99368.41;;;11.54;54.63
67740;BME280;54536;50.090;14.420;2023-02-21T06:48:35;99373.41;;;11.57;54.26
67740;BME280;54536;50.090;14.420;2023-02-21T06:51:02;99371.69;;;11.75;54.29
67740;BME280;54536;50.090;14.420;2023-02-21T06:53:50;99376.16;;;11.65;54.00
67740;BME280;54536;50.090;14.420;2023-02-21T06:56:23;99382.25;;;11.65;54.46
67740;BME280;54536;50.090;14.420;2023-02-21T06:58:50;99388.53;;;11.55;54.75
67740;BME280;54536;50.090;14.420;2023-02-21T07:01:25;99393.34;;;11.59;54.73
67740;BME280;54536;50.090;14.420;2023-02-21T07:03:59;99395.69;;;11.72;54.15
67740;BME280;54536;50.090;14.420;2023-02-21T07:06:25;99389.69;;;11.80;54.29
67740;BME280;54536;50.090;14.420;2023-02-21T07:08:52;99399.00;;;11.74;54.06
67740;BME280;54536;50.090;14.420;2023-02-21T07:11:18;99394.13;;;11.79;54.34
67740;BME280;54536;50.090;14.420;2023-02-21T07:13:52;99401.59;;;11.84;53.90
67740;BME280;54536;50.090;14.420;2023-02-21T07:16:19;99411.75;;;11.79;54.16
67740;BME280;54536;50.090;14.420;2023-02-21T07:18:46;99413.09;;;11.92;53.50
67740;BME280;54536;50.090;14.420;2023-02-21T07:21:14;99409.06;;;11.98;53.21
67740;BME280;54536;50.090;14.420;2023-02-21T07:23:42;99409.16;;;12.06;53.52
67740;BME280;54536;50.090;14.420;2023-02-21T07:26:10;99416.25;;;12.06;53.00
67740;BME280;54536;50.090;14.420;2023-02-21T07:28:36;99410.25;;;12.13;53.05
67740;BME280;54536;50.090;14.420;2023-02-21T07:31:02;99405.66;;;12.15;52.63
67740;BME280;54536;50.090;14.420;2023-02-21T07:33:28;99403.56;;;12.19;52.68
67740;BME280;54536;50.090;14.420;2023-02-21T07:35:54;99398.47;;;12.08;53.14
67740;BME280;54536;50.090;14.420;2023-02-21T07:38:29;99413.31;;;12.09;53.13
67740;BME280;54536;50.090;14.420;2023-02-21T07:40:58;99405.47;;;12.27;53.25
67740;BME280;54536;50.090;14.420;2023-02-21T07:43:26;99407.53;;;12.33;52.47
67740;BME280;54536;50.090;14.420;2023-02-21T07:45:53;99416.25;;;12.33;53.00
67740;BME280;54536;50.090;14.420;2023-02-21T07:48:20;99404.88;;;12.33;52.55
67740;BME280;54536;50.090;14.420;2023-02-21T07:50:47;99417.38;;;12.31;52.27
67740;BME280;54536;50.090;14.420;2023-02-21T07:53:15;99419.03;;;12.32;52.74
67740;BME280;54536;50.090;14.420;2023-02-21T07:55:41;99425.25;;;12.40;52.31
67740;BME280;54536;50.090;14.420;2023-02-21T07:58:07;99426.75;;;12.43;52.19
67740;BME280;54536;50.090;14.420;2023-02-21T08:00:33;99427.66;;;12.52;52.11
67740;BME280;54536;50.090;14.420;2023-02-21T08:03:00;99431.59;;;12.48;52.03
67740;BME280;54536;50.090;14.420;2023-02-21T08:05:27;99428.81;;;12.49;52.15
67740;BME280;54536;50.090;14.420;2023-02-21T08:07:53;99436.84;;;12.48;52.26
67740;BME280;54536;50.090;14.420;2023-02-21T08:10:25;99448.47;;;12.55;52.55
67740;BME280;54536;50.090;14.420;2023-02-21T08:12:52;99444.19;;;12.54;52.17
67740;BME280;54536;50.090;14.420;2023-02-21T08:15:18;99440.56;;;12.55;52.56
67740;BME280;54536;50.090;14.420;2023-02-21T08:17:47;99445.25;;;12.61;52.40
67740;BME280;54536;50.090;14.420;2023-02-21T08:20:13;99440.66;;;12.63;51.58
67740;BME280;54536;50.090;14.420;2023-02-21T08:22:39;99444.06;;;12.73;51.44
67740;BME280;54536;50.090;14.420;2023-02-21T08:25:06;99453.09;;;12.71;51.56
67740;BME280;54536;50.090;14.420;2023-02-21T08:27:32;99452.19;;;12.62;51.77
67740;BME280;54536;50.090;14.420;2023-02-21T08:29:58;99455.38;;;12.65;52.27
67740;BME280;54536;50.090;14.420;2023-02-21T08:32:24;99456.88;;;12.68;51.74
67740;BME280;54536;50.090;14.420;2023-02-21T08:34:51;99456.56;;;12.71;51.56
67740;BME280;54536;50.090;14.420;2023-02-21T08:37:17;99459.59;;;12.76;52.37
67740;BME280;54536;50.090;14.420;2023-02-21T08:39:50;99467.53;;;12.76;52.49
67740;BME280;54536;50.090;14.420;2023-02-21T08:42:18;99464.34;;;12.73;52.32
67740;BME280;54536;50.090;14.420;2023-02-21T08:44:46;99461.94;;;12.97;51.62
67740;BME280;54536;50.090;14.420;2023-02-21T08:47:14;99471.56;;;12.98;53.10
67740;BME280;54536;50.090;14.420;2023-02-21T08:49:47;99462.19;;;13.04;52.30
67740;BME280;54536;50.090;14.420;2023-02-21T08:52:14;99447.84;;;13.06;51.59
67740;BME280;54536;50.090;14.420;2023-02-21T08:54:44;99453.00;;;13.08;51.45
67740;BME280;54536;50.090;14.420;2023-02-21T08:57:11;99460.59;;;13.11;51.96
67740;BME280;54536;50.090;14.420;2023-02-21T08:59:42;99446.25;;;13.13;51.31
67740;BME280;54536;50.090;14.420;2023-02-21T09:02:15;99449.13;;;13.20;51.73
67740;BME280;54536;50.090;14.420;2023-02-21T09:04:43;99439.09;;;13.24;52.11
67740;BME280;54536;50.090;14.420;2023-02-21T09:07:14;99436.56;;;13.32;51.26
67740;BME280;54536;50.090;14.420;2023-02-21T09:09:41;99437.38;;;13.32;50.96
67740;BME280;54536;50.090;14.420;2023-02-21T09:12:07;99439.13;;;13.42;51.07
67740;BME280;54536;50.090;14.420;2023-02-21T09:14:34;99450.00;;;13.39;50.70
67740;BME280;54536;50.090;14.420;2023-02-21T09:17:02;99447.25;;;13.48;51.00
67740;BME280;54536;50.090;14.420;2023-02-21T09:19:28;99443.41;;;13.61;50.35
67740;BME280;54536;50.090;14.420;2023-02-21T09:21:54;99447.06;;;13.68;49.83
67740;BME280;54536;50.090;14.420;2023-02-21T09:24:22;99444.38;;;13.86;49.73
67740;BME280;54536;50.090;14.420;2023-02-21T09:26:51;99445.94;;;13.96;49.57
67740;BME280;54536;50.090;14.420;2023-02-21T09:29:20;99450.22;;;13.97;49.69
67740;BME280;54536;50.090;14.420;2023-02-21T09:31:48;99459.03;;;14.06;48.89
67740;BME280;54536;50.090;14.420;2023-02-21T09:34:14;99451.34;;;13.95;49.42
67740;BME280;54536;50.090;14.420;2023-02-21T09:36:40;99450.00;;;14.17;48.85
67740;BME280;54536;50.090;14.420;2023-02-21T09:39:08;99465.50;;;14.12;49.13
67740;BME280;54536;50.090;14.420;2023-02-21T09:41:35;99459.56;;;14.10;48.79
67740;BME280;54536;50.090;14.420;2023-02-21T09:44:05;99472.03;;;13.99;49.11
67740;BME280;54536;50.090;14.420;2023-02-21T09:46:49;99471.91;;;14.09;49.21
67740;BME280;54536;50.090;14.420;2023-02-21T09:49:32;99469.63;;;14.06;49.29
67740;BME280;54536;50.090;14.420;2023-02-21T09:52:00;99480.81;;;14.00;49.51
67740;BME280;54536;50.090;14.420;2023-02-21T09:54:37;99484.41;;;13.99;48.91
67740;BME280;54536;50.090;14.420;2023-02-21T09:57:12;99481.34;;;14.03;49.27
67740;BME280;54536;50.090;14.420;2023-02-21T09:59:40;99476.91;;;14.12;49.56
67740;BME280;54536;50.090;14.420;2023-02-21T10:07:26;99480.84;;;14.08;49.66
67740;BME280;54536;50.090;14.420;2023-02-21T10:15:46;99490.22;;;14.28;49.74
67740;BME280;54536;50.090;14.420;2023-02-21T10:18:40;99495.97;;;14.24;49.53
67740;BME280;54536;50.090;14.420;2023-02-21T10:21:34;99499.09;;;14.19;49.14
67740;BME280;54536;50.090;14.420;2023-02-21T10:24:04;99500.06;;;14.18;49.20
67740;BME280;54536;50.090;14.420;2023-02-21T10:26:43;99502.56;;;14.20;49.32
67740;BME280;54536;50.090;14.420;2023-02-21T10:29:21;99507.81;;;14.12;49.76
67740;BME280;54536;50.090;14.420;2023-02-21T10:31:56;99492.13;;;14.10;49.89
67740;BME280;54536;50.090;14.420;2023-02-21T10:34:28;99503.59;;;14.27;49.38
67740;BME280;54536;50.090;14.420;2023-02-21T10:37:01;99509.81;;;14.44;49.12
67740;BME280;54536;50.090;14.420;2023-02-21T10:39:39;99507.63;;;14.65;49.28
67740;BME280;54536;50.090;14.420;2023-02-21T10:42:33;99494.38;;;14.65;49.45
67740;BME280;54536;50.090;14.420;2023-02-21T10:45:04;99498.50;;;14.68;48.55
67740;BME280;54536;50.090;14.420;2023-02-21T10:47:55;99506.81;;;14.73;48.51
67740;BME280;54536;50.090;14.420;2023-02-21T10:53:07;99502.16;;;14.67;48.69
67740;BME280;54536;50.090;14.420;2023-02-21T10:55:33;99502.34;;;14.73;48.41
67740;BME280;54536;50.090;14.420;2023-02-21T10:58:24;99498.19;;;14.71;48.63
67740;BME280;54536;50.090;14.420;2023-02-21T11:00:52;99509.00;;;14.94;48.40
67740;BME280;54536;50.090;14.420;2023-02-21T11:05:55;99492.47;;;14.92;48.22
67740;BME280;54536;50.090;14.420;2023-02-21T11:08:42;99502.94;;;15.02;47.35
67740;BME280;54536;50.090;14.420;2023-02-21T11:11:09;99508.00;;;14.87;47.67
67740;BME280;54536;50.090;14.420;2023-02-21T11:13:36;99498.94;;;14.97;48.09
67740;BME280;54536;50.090;14.420;2023-02-21T11:16:17;99500.59;;;14.98;47.95
67740;BME280;54536;50.090;14.420;2023-02-21T11:18:45;99493.84;;;15.04;48.07
67740;BME280;54536;50.090;14.420;2023-02-21T11:21:17;99495.13;;;14.92;47.36
67740;BME280;54536;50.090;14.420;2023-02-21T11:26:15;99492.56;;;14.66;48.61
67740;BME280;54536;50.090;14.420;2023-02-21T11:28:44;99487.28;;;14.66;48.42
67740;BME280;54536;50.090;14.420;2023-02-21T11:31:36;99480.78;;;14.52;48.53
67740;BME280;54536;50.090;14.420;2023-02-21T11:34:05;99490.97;;;14.47;49.22
67740;BME280;54536;50.090;14.420;2023-02-21T11:36:35;99475.09;;;14.47;49.75
67740;BME280;54536;50.090;14.420;2023-02-21T11:39:14;99487.50;;;14.46;49.35
67740;BME280;54536;50.090;14.420;2023-02-21T11:41:50;99487.63;;;14.37;49.35
67740;BME280;54536;50.090;14.420;2023-02-21T11:44:27;99481.84;;;14.41;49.40
67740;BME280;54536;50.090;14.420;2023-02-21T11:47:22;99497.88;;;14.40;49.44
67740;BME280;54536;50.090;14.420;2023-02-21T11:50:20;99493.84;;;14.54;49.70
67740;BME280;54536;50.090;14.420;2023-02-21T11:53:03;99483.56;;;14.50;49.08
67740;BME280;54536;50.090;14.420;2023-02-21T11:55:31;99487.41;;;14.56;48.96
67740;BME280;54536;50.090;14.420;2023-02-21T11:58:25;99488.09;;;14.66;48.69
67740;BME280;54536;50.090;14.420;2023-02-21T12:06:39;99474.91;;;14.40;49.37
67740;BME280;54536;50.090;14.420;2023-02-21T12:11:52;99476.13;;;14.54;49.15
67740;BME280;54536;50.090;14.420;2023-02-21T12:25:30;99466.78;;;14.34;49.06
67740;BME280;54536;50.090;14.420;2023-02-21T12:39:32;99449.56;;;14.29;49.24
67740;BME280;54536;50.090;14.420;2023-02-21T12:42:27;99452.41;;;14.36;49.83
67740;BME280;54536;50.090;14.420;2023-02-21T12:50:39;99450.69;;;14.53;49.32
67740;BME280;54536;50.090;14.420;2023-02-21T12:53:16;99443.50;;;14.45;48.97
67740;BME280;54536;50.090;14.420;2023-02-21T12:55:53;99432.41;;;14.42;49.49
67740;BME280;54536;50.090;14.420;2023-02-21T12:58:40;99435.09;;;14.50;49.37
67740;BME280;54536;50.090;14.420;2023-02-21T13:01:20;99427.72;;;14.62;49.31
67740;BME280;54536;50.090;14.420;2023-02-21T13:04:44;99425.72;;;14.56;48.15
67740;BME280;54536;50.090;14.420;2023-02-21T13:07:00;99415.47;;;14.61;48.03
67740;BME280;54536;50.090;14.420;2023-02-21T13:13:11;99416.13;;;14.71;48.51
67740;BME280;54536;50.090;14.420;2023-02-21T13:15:18;99417.63;;;14.73;48.10
67740;BME280;54536;50.090;14.420;2023-02-21T13:20:23;99411.84;;;14.70;48.17
67740;BME280;54536;50.090;14.420;2023-02-21T13:23:10;99411.19;;;14.84;48.20
67740;BME280;54536;50.090;14.420;2023-02-21T13:28:36;99413.31;;;14.56;48.52
67740;BME280;54536;50.090;14.420;2023-02-21T13:31:06;99416.78;;;14.57;48.58
67740;BME280;54536;50.090;14.420;2023-02-21T13:33:47;99426.53;;;14.64;48.62
67740;BME280;54536;50.090;14.420;2023-02-21T13:41:49;99414.78;;;14.50;48.74
67740;BME280;54536;50.090;14.420;2023-02-21T13:44:23;99419.44;;;14.57;48.34
67740;BME280;54536;50.090;14.420;2023-02-21T13:52:29;99407.66;;;14.51;48.54
67740;BME280;54536;50.090;14.420;2023-02-21T13:57:46;99397.22;;;14.49;48.44
67740;BME280;54536;50.090;14.420;2023-02-21T14:08:34;99382.50;;;14.47;48.28
67740;BME280;54536;50.090;14.420;2023-02-21T14:18:48;99391.31;;;14.64;48.45
67740;BME280;54536;50.090;14.420;2023-02-21T14:23:52;99389.00;;;14.52;48.07
67740;BME280;54536;50.090;14.420;2023-02-21T14:31:53;99394.53;;;14.41;48.17
67740;BME280;54536;50.090;14.420;2023-02-21T14:39:59;99390.59;;;14.45;48.43
67740;BME280;54536;50.090;14.420;2023-02-21T15:00:21;99395.16;;;14.35;48.22
67740;BME280;54536;50.090;14.420;2023-02-21T15:03:13;99386.63;;;14.49;48.78
67740;BME280;54536;50.090;14.420;2023-02-21T15:06:18;99387.09;;;14.45;48.16
67740;BME280;54536;50.090;14.420;2023-02-21T15:08:48;99385.44;;;14.36;48.34
67740;BME280;54536;50.090;14.420;2023-02-21T15:11:26;99375.00;;;14.34;48.83
67740;BME280;54536;50.090;14.420;2023-02-21T15:14:14;99378.00;;;14.39;48.61
67740;BME280;54536;50.090;14.420;2023-02-21T15:16:52;99376.81;;;14.34;48.65
67740;BME280;54536;50.090;14.420;2023-02-21T15:19:28;99389.38;;;14.32;49.36
67740;BME280;54536;50.090;14.420;2023-02-21T15:22:17;99382.81;;;14.36;49.04
67740;BME280;54536;50.090;14.420;2023-02-21T15:27:29;99386.91;;;14.30;49.54
67740;BME280;54536;50.090;14.420;2023-02-21T15:32:39;99394.53;;;14.33;48.76
67740;BME280;54536;50.090;14.420;2023-02-21T15:35:20;99393.06;;;14.39;48.80
67740;BME280;54536;50.090;14.420;2023-02-21T15:37:48;99394.22;;;14.44;48.33
67740;BME280;54536;50.090;14.420;2023-02-21T15:40:22;99397.19;;;14.41;48.67
67740;BME280;54536;50.090;14.420;2023-02-21T15:42:51;99395.41;;;14.50;48.46
67740;BME280;54536;50.090;14.420;2023-02-21T15:45:30;99392.59;;;14.51;48.86
67740;BME280;54536;50.090;14.420;2023-02-21T15:48:00;99393.56;;;14.42;48.49
67740;BME280;54536;50.090;14.420;2023-02-21T15:52:54;99396.41;;;14.49;49.01
67740;BME280;54536;50.090;14.420;2023-02-21T15:55:29;99390.09;;;14.50;48.92
67740;BME280;54536;50.090;14.420;2023-02-21T16:00:47;99395.88;;;14.45;48.65
67740;BME280;54536;50.090;14.420;2023-02-21T16:03:38;99397.19;;;14.41;49.11
67740;BME280;54536;50.090;14.420;2023-02-21T16:06:18;99400.00;;;14.40;49.45
67740;BME280;54536;50.090;14.420;2023-02-21T16:09:27;99400.81;;;14.40;48.99
67740;BME280;54536;50.090;14.420;2023-02-21T16:12:21;99407.56;;;14.35;49.54
67740;BME280;54536;50.090;14.420;2023-02-21T16:15:02;99411.34;;;14.32;49.61
67740;BME280;54536;50.090;14.420;2023-02-21T16:17:36;99406.06;;;14.24;49.49